Avella, Pennsylvania
Current Conditions -  °F | °C
As of 12:08 PM on Friday 19 Dec 2014 (Local Time) from KHLG Reporting Station
Overcast Overcast  
Wind Chill: 23°   Ceiling: 1900
Heat Index: 29°   Visibility: 7mi
Dew Point: 24°   Wind: 6mph
Humidity: 82%   Direction: 270°W
Pressure: 30.21"   Gusts: NA
Location:  40.28°N, 80.46°W
Report Text: KHLG 191708Z 27005KT 7SM SCT011 OVC019 M02/M04 A3021 RMK AO2 T10171044
Loading
Personal Weather Stations






























Interactive Weather Map New forecast layout! Learn more

10-Day Weather Forecast

Advertisements
Track Severe Weather on mobile